createdAt,value
2024-02-02T00:02:12.809Z,16.20
2024-02-02T00:04:41.560Z,16.20
2024-02-02T00:07:10.019Z,16.10
2024-02-02T00:09:38.602Z,16.20
2024-02-02T00:12:12.236Z,15.60
2024-02-02T00:14:40.904Z,15.90
2024-02-02T00:17:09.312Z,16.20
2024-02-02T00:19:37.694Z,16.40
2024-02-02T00:22:06.203Z,16.30
2024-02-02T00:24:34.504Z,16.10
2024-02-02T00:27:03.481Z,16.30
2024-02-02T00:29:33.547Z,15.80
2024-02-02T00:32:02.018Z,16.20
2024-02-02T00:34:30.607Z,16.00
2024-02-02T00:36:59.078Z,16.50
2024-02-02T00:39:27.659Z,17.30
2024-02-02T00:41:56.462Z,16.90
2024-02-02T00:44:24.993Z,16.40
2024-02-02T00:46:54.857Z,15.90
2024-02-02T00:49:24.871Z,16.20
2024-02-02T00:51:53.587Z,15.90
2024-02-02T00:54:22.952Z,15.90
2024-02-02T00:56:51.817Z,15.90
2024-02-02T00:59:20.437Z,15.80
2024-02-02T01:01:49.052Z,15.50
2024-02-02T01:04:19.332Z,15.50
2024-02-02T01:06:47.870Z,15.60
2024-02-02T01:09:17.082Z,15.40
2024-02-02T01:11:45.637Z,16.30
2024-02-02T01:14:14.558Z,15.90
2024-02-02T01:16:43.468Z,16.10
2024-02-02T01:19:12.067Z,15.90
2024-02-02T01:21:42.042Z,16.10
2024-02-02T01:24:10.616Z,16.20
2024-02-02T01:26:39.395Z,16.10
2024-02-02T01:29:10.093Z,15.90
2024-02-02T01:31:38.546Z,15.60
2024-02-02T01:34:07.368Z,15.50
2024-02-02T01:36:37.787Z,15.60
2024-02-02T01:39:11.886Z,16.30
2024-02-02T01:41:40.335Z,16.40
2024-02-02T01:44:09.284Z,16.30
2024-02-02T01:46:37.978Z,16.00
2024-02-02T01:49:06.583Z,15.60
2024-02-02T01:51:35.280Z,15.00
2024-02-02T01:54:04.593Z,15.00
2024-02-02T01:56:34.832Z,15.40
2024-02-02T01:59:04.772Z,15.50
2024-02-02T02:01:33.863Z,15.10
2024-02-02T02:04:02.988Z,14.80
2024-02-02T02:06:31.580Z,15.10
2024-02-02T02:09:00.069Z,14.80
2024-02-02T02:11:28.820Z,15.10
2024-02-02T02:13:59.030Z,15.30
2024-02-02T02:16:27.718Z,15.40
2024-02-02T02:19:02.874Z,14.90
2024-02-02T02:21:33.976Z,14.90
2024-02-02T02:24:02.510Z,15.00
2024-02-02T02:26:31.881Z,15.00
2024-02-02T02:29:00.548Z,15.20
2024-02-02T02:31:29.497Z,15.60
2024-02-02T02:33:58.334Z,15.00
2024-02-02T02:36:27.908Z,15.10
2024-02-02T02:38:58.291Z,15.00
2024-02-02T02:41:26.983Z,15.10
2024-02-02T02:43:56.106Z,15.30
2024-02-02T02:46:24.722Z,15.30
2024-02-02T02:48:53.811Z,15.30
2024-02-02T02:51:22.406Z,15.70
2024-02-02T02:53:50.957Z,15.80
2024-02-02T02:56:21.176Z,15.90
2024-02-02T02:58:49.775Z,15.50
2024-02-02T03:01:18.341Z,15.40
2024-02-02T03:03:46.972Z,16.00
2024-02-02T03:06:15.718Z,16.30
2024-02-02T03:08:44.438Z,16.70
2024-02-02T03:11:14.266Z,17.00
2024-02-02T03:13:44.311Z,17.10
2024-02-02T03:16:12.869Z,17.10
2024-02-02T03:18:43.751Z,16.30
2024-02-02T03:21:14.179Z,16.00
2024-02-02T03:23:42.693Z,15.60
2024-02-02T03:26:11.302Z,15.10
2024-02-02T03:28:39.625Z,15.30
2024-02-02T03:31:09.987Z,15.40
2024-02-02T03:33:38.987Z,15.20
2024-02-02T03:36:07.715Z,15.10
2024-02-02T03:38:36.404Z,14.90
2024-02-02T03:41:05.053Z,15.20
2024-02-02T03:43:33.520Z,15.70
2024-02-02T03:46:02.023Z,16.00
2024-02-02T03:48:32.001Z,15.40
2024-02-02T03:51:00.506Z,15.50
2024-02-02T03:53:28.927Z,15.40
2024-02-02T03:55:57.525Z,15.40
2024-02-02T03:58:26.228Z,14.70
2024-02-02T04:00:55.025Z,15.50
2024-02-02T04:03:23.719Z,15.70
2024-02-02T04:05:53.764Z,15.40
2024-02-02T04:08:22.398Z,15.40
2024-02-02T04:10:50.916Z,15.60
2024-02-02T04:13:21.357Z,16.00
2024-02-02T04:15:51.436Z,15.60
2024-02-02T04:18:20.337Z,15.40
2024-02-02T04:20:48.893Z,15.10
2024-02-02T04:23:18.781Z,15.40
2024-02-02T04:25:47.857Z,15.60
2024-02-02T04:28:17.160Z,15.70
2024-02-02T04:30:46.054Z,15.40
2024-02-02T04:33:15.640Z,15.70
2024-02-02T04:35:44.309Z,15.90
2024-02-02T04:38:12.803Z,16.40
2024-02-02T04:40:42.525Z,15.80
2024-02-02T04:43:11.125Z,15.60
2024-02-02T04:45:39.619Z,15.20
2024-02-02T04:48:09.021Z,15.40
2024-02-02T04:50:37.558Z,16.10
2024-02-02T04:53:07.677Z,15.40
2024-02-02T04:55:36.062Z,14.90
2024-02-02T04:58:06.191Z,15.40
2024-02-02T05:00:34.717Z,15.20
2024-02-02T05:03:03.480Z,15.30
2024-02-02T05:05:31.889Z,15.20
2024-02-02T05:08:00.300Z,14.80
2024-02-02T05:10:28.705Z,15.20
2024-02-02T05:12:57.104Z,15.20
2024-02-02T05:15:27.165Z,15.40
2024-02-02T05:17:55.651Z,15.80
2024-02-02T05:20:24.028Z,15.60
2024-02-02T05:22:52.479Z,15.30
2024-02-02T05:25:20.968Z,14.80
2024-02-02T05:27:49.825Z,14.90
2024-02-02T05:30:18.418Z,14.90
2024-02-02T05:32:48.413Z,15.00
2024-02-02T05:35:16.963Z,15.00
2024-02-02T05:37:45.404Z,15.80
2024-02-02T05:40:14.222Z,15.20
2024-02-02T05:42:44.704Z,15.60
2024-02-02T05:45:13.345Z,16.00
2024-02-02T05:47:41.948Z,16.20
2024-02-02T05:50:12.178Z,16.40
2024-02-02T05:52:40.645Z,16.10
2024-02-02T05:55:09.681Z,16.10
2024-02-02T05:57:38.090Z,16.10
2024-02-02T06:00:08.244Z,16.20
2024-02-02T06:02:36.770Z,15.70
2024-02-02T06:05:05.553Z,15.80
2024-02-02T06:07:35.646Z,15.80
2024-02-02T06:10:03.976Z,15.80
2024-02-02T06:12:32.495Z,15.50
2024-02-02T06:15:01.151Z,15.20
2024-02-02T06:17:29.795Z,16.00
2024-02-02T06:19:59.386Z,16.40
2024-02-02T06:22:28.359Z,16.70
2024-02-02T06:24:58.274Z,16.30
2024-02-02T06:27:28.482Z,16.40
2024-02-02T06:29:56.993Z,15.80
2024-02-02T06:32:25.602Z,16.00
2024-02-02T06:34:57.485Z,16.50
2024-02-02T06:37:26.696Z,16.00
2024-02-02T06:39:56.155Z,15.70
2024-02-02T06:42:27.026Z,15.90
2024-02-02T06:44:58.532Z,16.00
2024-02-02T06:47:27.273Z,15.40
2024-02-02T06:49:55.996Z,15.10
2024-02-02T06:52:24.450Z,15.50
2024-02-02T06:54:52.996Z,15.40
2024-02-02T06:57:22.682Z,15.80
2024-02-02T06:59:52.888Z,16.10
2024-02-02T07:02:23.042Z,15.70
2024-02-02T07:04:51.604Z,15.70
2024-02-02T07:07:20.649Z,15.70
2024-02-02T07:09:53.603Z,15.30
2024-02-02T07:12:55.461Z,14.80
2024-02-02T07:15:28.328Z,14.60
2024-02-02T07:17:57.194Z,15.20
2024-02-02T07:21:08.245Z,14.90
2024-02-02T07:23:38.777Z,15.30
2024-02-02T07:26:14.458Z,14.70
2024-02-02T07:28:43.321Z,15.00
2024-02-02T07:31:18.674Z,15.10
2024-02-02T07:33:49.305Z,14.80
2024-02-02T07:36:28.326Z,14.90
2024-02-02T07:38:57.699Z,15.60
2024-02-02T07:41:27.491Z,15.20
2024-02-02T07:43:56.822Z,15.10
2024-02-02T07:46:27.053Z,16.10
2024-02-02T07:48:56.357Z,16.30
2024-02-02T07:51:26.332Z,15.70
2024-02-02T07:53:55.561Z,15.30
2024-02-02T07:56:25.686Z,15.40
2024-02-02T07:58:56.230Z,16.20
2024-02-02T08:01:26.240Z,16.20
2024-02-02T08:03:55.160Z,16.10
2024-02-02T08:06:24.127Z,16.70
2024-02-02T08:08:52.995Z,15.70
2024-02-02T08:11:26.091Z,16.00
2024-02-02T08:13:55.210Z,16.10
2024-02-02T08:16:23.653Z,15.90
2024-02-02T08:18:53.531Z,15.50
2024-02-02T08:21:22.518Z,15.40
2024-02-02T08:23:50.824Z,15.60
2024-02-02T08:26:19.255Z,15.70
2024-02-02T08:28:51.745Z,16.30
2024-02-02T08:31:23.700Z,16.20
2024-02-02T08:33:53.812Z,16.00
2024-02-02T08:36:22.527Z,15.60
2024-02-02T08:38:50.918Z,15.50
2024-02-02T08:41:19.975Z,15.60
2024-02-02T08:43:49.064Z,15.70
2024-02-02T08:46:22.156Z,16.00
2024-02-02T08:48:51.977Z,16.40
2024-02-02T08:51:50.725Z,16.20
2024-02-02T08:54:44.485Z,16.10
2024-02-02T08:57:47.296Z,15.70
2024-02-02T09:00:19.526Z,15.60
2024-02-02T09:03:00.266Z,15.90
2024-02-02T09:05:51.054Z,16.30
2024-02-02T09:08:34.375Z,16.20
2024-02-02T09:11:22.282Z,16.30
2024-02-02T09:14:01.002Z,16.20
2024-02-02T09:16:41.575Z,15.90
2024-02-02T09:19:19.554Z,15.50
2024-02-02T09:21:48.134Z,15.30
2024-02-02T09:24:37.180Z,15.10
2024-02-02T09:27:07.684Z,15.60
2024-02-02T09:29:40.826Z,16.00
2024-02-02T09:32:11.373Z,16.60
2024-02-02T09:34:42.249Z,16.10
2024-02-02T09:37:13.339Z,15.90
2024-02-02T09:39:54.971Z,16.00
2024-02-02T09:42:56.471Z,16.40
2024-02-02T09:45:42.281Z,16.40
2024-02-02T09:48:29.710Z,16.70
2024-02-02T09:51:05.623Z,16.30
2024-02-02T09:54:06.994Z,15.20
2024-02-02T09:56:47.201Z,15.50
2024-02-02T09:59:27.161Z,15.60
2024-02-02T10:02:12.179Z,15.90
2024-02-02T10:04:53.368Z,15.40
2024-02-02T10:07:34.720Z,15.90
2024-02-02T10:10:27.622Z,16.20
2024-02-02T10:13:06.709Z,16.60
2024-02-02T10:15:50.477Z,16.50
2024-02-02T10:19:01.497Z,16.10
2024-02-02T10:21:38.562Z,15.10
2024-02-02T10:24:33.644Z,15.00
2024-02-02T10:27:22.923Z,15.40
2024-02-02T10:30:07.061Z,15.30
2024-02-02T10:32:55.378Z,15.30
2024-02-02T10:35:34.936Z,15.60
2024-02-02T10:38:18.402Z,16.20
2024-02-02T10:40:55.368Z,15.90
2024-02-02T10:43:47.013Z,16.60
2024-02-02T10:46:26.725Z,16.60
2024-02-02T10:49:22.974Z,17.80
2024-02-02T10:52:01.413Z,17.60
2024-02-02T10:54:44.041Z,17.00
2024-02-02T10:57:25.702Z,16.60
2024-02-02T11:00:08.367Z,15.90
2024-02-02T11:02:53.770Z,15.50
2024-02-02T11:05:29.433Z,15.50
2024-02-02T11:08:02.740Z,15.50
2024-02-02T11:10:39.166Z,15.10
2024-02-02T11:13:15.801Z,15.40
2024-02-02T11:15:57.898Z,15.50
2024-02-02T11:18:49.478Z,15.60
2024-02-02T11:21:39.828Z,15.20
2024-02-02T11:24:17.631Z,14.80
2024-02-02T11:27:00.017Z,14.50
2024-02-02T11:29:37.407Z,14.30
2024-02-02T11:32:24.534Z,14.70
2024-02-02T11:35:02.369Z,15.20
2024-02-02T11:37:43.923Z,15.50
2024-02-02T11:40:14.513Z,15.70
2024-02-02T11:42:45.706Z,15.50
2024-02-02T11:45:21.511Z,15.90
2024-02-02T11:47:55.322Z,16.20
2024-02-02T11:50:28.297Z,16.50
2024-02-02T11:53:03.915Z,16.80
2024-02-02T11:55:38.668Z,16.90
2024-02-02T11:58:10.893Z,16.70
2024-02-02T12:00:54.130Z,16.50
2024-02-02T12:03:31.821Z,16.20
2024-02-02T12:06:12.957Z,15.70
2024-02-02T12:08:51.570Z,15.50
2024-02-02T12:11:29.399Z,15.20
2024-02-02T12:14:03.615Z,15.00
2024-02-02T12:16:32.264Z,15.30
2024-02-02T12:19:00.983Z,15.60
2024-02-02T12:21:31.330Z,15.50
2024-02-02T12:23:59.926Z,15.60
2024-02-02T12:26:29.589Z,15.70
2024-02-02T12:28:58.067Z,16.10
2024-02-02T12:31:26.470Z,16.00
2024-02-02T12:33:55.434Z,16.00
2024-02-02T12:36:24.156Z,15.90
2024-02-02T12:38:54.747Z,16.20
2024-02-02T12:41:23.488Z,16.40
2024-02-02T12:43:52.130Z,16.40
2024-02-02T12:46:22.212Z,15.80
2024-02-02T12:48:50.792Z,16.10
2024-02-02T12:51:22.049Z,16.10
2024-02-02T12:53:51.313Z,16.30
2024-02-02T12:56:21.199Z,16.10
2024-02-02T12:58:49.652Z,16.20
2024-02-02T13:01:18.367Z,16.60
2024-02-02T13:03:47.096Z,16.90
2024-02-02T13:06:16.000Z,16.70
2024-02-02T13:08:47.713Z,16.50
2024-02-02T13:11:26.376Z,16.40
2024-02-02T13:14:05.109Z,16.70
2024-02-02T13:16:34.603Z,17.00
2024-02-02T13:19:07.407Z,16.90
2024-02-02T13:21:43.904Z,17.20
2024-02-02T13:24:19.515Z,17.10
2024-02-02T13:26:52.581Z,17.30
2024-02-02T13:29:27.294Z,17.10
2024-02-02T13:31:57.229Z,17.20
2024-02-02T13:34:26.218Z,17.40
2024-02-02T13:37:01.500Z,17.10
2024-02-02T13:39:30.485Z,17.40
2024-02-02T13:42:06.045Z,18.10
2024-02-02T13:44:35.338Z,18.00
2024-02-02T13:47:03.712Z,17.90
2024-02-02T13:49:33.656Z,17.20
2024-02-02T13:52:06.703Z,17.40
2024-02-02T13:54:36.432Z,17.10
2024-02-02T13:57:06.473Z,17.60
2024-02-02T13:59:34.943Z,18.50
2024-02-02T14:02:06.561Z,18.30
2024-02-02T14:04:35.068Z,18.90
2024-02-02T14:07:03.631Z,19.10
2024-02-02T14:09:32.116Z,19.00
2024-02-02T14:12:02.241Z,18.80
2024-02-02T14:14:32.289Z,18.80
2024-02-02T14:17:04.508Z,18.30
2024-02-02T14:19:33.531Z,17.60
2024-02-02T14:22:06.864Z,17.40
2024-02-02T14:24:36.114Z,17.40
2024-02-02T14:27:08.238Z,17.80
2024-02-02T14:29:45.974Z,18.00
2024-02-02T14:32:14.494Z,18.20
2024-02-02T14:34:43.194Z,18.60
2024-02-02T14:37:12.659Z,18.40
2024-02-02T14:39:41.292Z,18.00
2024-02-02T14:42:09.768Z,18.00
2024-02-02T14:44:38.618Z,17.90
2024-02-02T14:47:10.359Z,18.50
2024-02-02T14:49:38.868Z,19.20
2024-02-02T14:52:07.915Z,19.80
2024-02-02T14:54:36.565Z,19.90
2024-02-02T14:57:05.519Z,19.80
2024-02-02T14:59:42.588Z,19.60
2024-02-02T15:02:12.843Z,19.50
2024-02-02T15:04:42.105Z,18.70
2024-02-02T15:07:17.894Z,18.90
2024-02-02T15:09:48.330Z,18.90
2024-02-02T15:12:18.986Z,18.70
2024-02-02T15:14:48.958Z,19.00
2024-02-02T15:17:20.596Z,19.10
2024-02-02T15:19:49.253Z,19.30
2024-02-02T15:22:19.169Z,19.40
2024-02-02T15:24:48.005Z,19.20
2024-02-02T15:27:17.256Z,19.50
2024-02-02T15:29:46.915Z,20.20
2024-02-02T15:32:15.599Z,20.20
2024-02-02T15:34:45.713Z,20.80
2024-02-02T15:37:14.878Z,20.40
2024-02-02T15:43:06.227Z,20.50
2024-02-02T15:45:35.070Z,20.70
2024-02-02T15:48:06.670Z,20.60
2024-02-02T15:50:37.729Z,20.70
2024-02-02T15:53:06.548Z,21.10
2024-02-02T15:55:35.011Z,20.80
2024-02-02T15:58:03.611Z,20.90
2024-02-02T16:00:32.217Z,21.20
2024-02-02T16:03:11.001Z,21.50
2024-02-02T16:05:40.724Z,21.50
2024-02-02T16:11:15.655Z,22.20
2024-02-02T16:13:46.587Z,22.20
2024-02-02T16:16:15.211Z,22.40
2024-02-02T16:18:48.201Z,22.50
2024-02-02T16:21:19.528Z,22.20
2024-02-02T16:24:09.935Z,22.20
2024-02-02T16:27:03.751Z,22.30
2024-02-02T16:29:52.751Z,22.40
2024-02-02T16:32:25.883Z,22.00
2024-02-02T16:34:54.844Z,21.10
2024-02-02T16:37:47.511Z,20.50
2024-02-02T16:40:37.720Z,19.70
2024-02-02T16:43:06.555Z,19.90
2024-02-02T16:45:35.283Z,19.80
2024-02-02T16:48:04.302Z,19.70
2024-02-02T16:53:43.084Z,18.30
2024-02-02T16:56:18.056Z,18.00
2024-02-02T16:58:49.567Z,17.50
2024-02-02T17:01:28.327Z,17.30
2024-02-02T17:03:57.462Z,17.20
2024-02-02T17:06:26.718Z,17.20
2024-02-02T17:08:56.849Z,17.00
2024-02-02T17:11:25.712Z,16.60
2024-02-02T17:13:54.575Z,16.60
2024-02-02T17:16:23.339Z,16.30
2024-02-02T17:18:52.863Z,16.70
2024-02-02T17:21:22.112Z,16.60
2024-02-02T17:24:00.527Z,16.50
2024-02-02T17:26:59.982Z,16.70
2024-02-02T17:30:10.101Z,16.80
2024-02-02T17:32:40.043Z,16.80
2024-02-02T17:35:10.121Z,16.70
2024-02-02T17:37:40.158Z,17.40
2024-02-02T17:40:13.433Z,17.20
2024-02-02T17:42:43.418Z,17.30
2024-02-02T17:45:11.914Z,17.20
2024-02-02T17:47:41.137Z,16.80
2024-02-02T17:50:10.645Z,16.30
2024-02-02T17:52:39.183Z,16.20
2024-02-02T17:55:08.058Z,16.20
2024-02-02T17:57:38.427Z,16.20
2024-02-02T18:00:08.521Z,16.50
2024-02-02T18:02:40.890Z,15.80
2024-02-02T18:08:02.913Z,16.30
2024-02-02T18:10:31.727Z,15.80
2024-02-02T18:13:02.222Z,15.40
2024-02-02T18:15:30.816Z,15.50
2024-02-02T18:17:59.414Z,15.40
2024-02-02T18:20:27.904Z,16.30
2024-02-02T18:22:56.440Z,16.60
2024-02-02T18:25:26.881Z,16.10
2024-02-02T18:27:55.772Z,16.60
2024-02-02T18:30:27.111Z,16.80
2024-02-02T18:32:55.769Z,16.90
2024-02-02T18:35:24.392Z,16.20
2024-02-02T18:37:55.001Z,16.50
2024-02-02T18:40:36.421Z,17.00
2024-02-02T18:43:04.971Z,16.90
2024-02-02T18:45:34.827Z,16.20
2024-02-02T18:48:03.526Z,15.50
2024-02-02T18:50:32.047Z,16.20
2024-02-02T18:53:00.746Z,16.80
2024-02-02T18:55:46.704Z,16.70
2024-02-02T18:58:17.313Z,17.00
2024-02-02T19:00:47.463Z,16.90
2024-02-02T19:03:16.008Z,16.70
2024-02-02T19:05:44.587Z,16.50
2024-02-02T19:08:13.330Z,16.70
2024-02-02T19:10:43.567Z,16.20
2024-02-02T19:13:14.030Z,16.30
2024-02-02T19:15:42.796Z,15.60
2024-02-02T19:18:12.969Z,15.50
2024-02-02T19:20:41.650Z,15.50
2024-02-02T19:23:10.074Z,16.10
2024-02-02T19:25:38.634Z,16.20
2024-02-02T19:28:08.153Z,15.90
2024-02-02T19:30:36.669Z,16.00
2024-02-02T19:33:05.470Z,16.60
2024-02-02T19:35:35.255Z,17.00
2024-02-02T19:38:04.045Z,16.60
2024-02-02T19:40:32.957Z,16.30
2024-02-02T19:43:04.326Z,15.50
2024-02-02T19:45:33.359Z,15.40
2024-02-02T19:48:02.391Z,15.00
2024-02-02T19:50:32.154Z,15.00
2024-02-02T19:54:02.885Z,15.30
2024-02-02T19:56:50.205Z,15.00
2024-02-02T19:59:20.477Z,14.80
2024-02-02T20:01:49.317Z,14.90
2024-02-02T20:04:17.837Z,15.00
2024-02-02T20:06:46.457Z,15.20
2024-02-02T20:09:18.355Z,15.00
2024-02-02T20:11:47.131Z,14.50
2024-02-02T20:14:16.964Z,14.50
2024-02-02T20:16:45.579Z,14.60
2024-02-02T20:19:14.449Z,14.60
2024-02-02T20:21:43.068Z,14.60
2024-02-02T20:24:11.564Z,14.50
2024-02-02T20:26:41.505Z,14.20
2024-02-02T20:29:10.294Z,14.00
2024-02-02T20:31:42.780Z,13.60
2024-02-02T20:34:11.787Z,14.00
2024-02-02T20:36:40.489Z,14.00
2024-02-02T20:39:09.508Z,14.10
2024-02-02T20:41:39.275Z,14.30
2024-02-02T20:44:09.270Z,14.50
2024-02-02T20:46:38.701Z,14.70
2024-02-02T20:49:07.637Z,14.90
2024-02-02T20:51:41.243Z,14.60
2024-02-02T20:54:09.830Z,14.50
2024-02-02T20:56:42.709Z,14.60
2024-02-02T20:59:12.544Z,14.40
2024-02-02T21:01:41.090Z,14.40
2024-02-02T21:04:09.669Z,14.50
2024-02-02T21:06:44.342Z,14.40
2024-02-02T21:09:13.325Z,14.60
2024-02-02T21:11:41.968Z,14.40
2024-02-02T21:14:10.504Z,14.40
2024-02-02T21:16:40.453Z,14.20
2024-02-02T21:19:11.796Z,15.00
2024-02-02T21:21:42.318Z,15.10
2024-02-02T21:24:11.400Z,14.50
2024-02-02T21:26:43.043Z,14.80
2024-02-02T21:29:12.528Z,14.90
2024-02-02T21:31:42.993Z,14.30
2024-02-02T21:34:11.755Z,14.20
2024-02-02T21:36:42.970Z,14.20
2024-02-02T21:39:12.289Z,14.00
2024-02-02T21:41:41.492Z,14.20
2024-02-02T21:44:10.135Z,13.80
2024-02-02T21:46:38.588Z,13.70
2024-02-02T21:49:10.153Z,13.40
2024-02-02T21:51:38.749Z,13.30
2024-02-02T21:54:08.431Z,13.30
2024-02-02T21:56:42.762Z,13.20
2024-02-02T21:59:11.609Z,12.90
2024-02-02T22:01:41.243Z,13.30
2024-02-02T22:04:13.224Z,13.30
2024-02-02T22:06:42.080Z,13.20
2024-02-02T22:09:10.604Z,13.30
2024-02-02T22:11:39.125Z,13.80
2024-02-02T22:14:07.688Z,14.00
2024-02-02T22:16:36.730Z,14.00
2024-02-02T22:19:05.401Z,14.10
2024-02-02T22:21:36.259Z,14.30
2024-02-02T22:24:05.154Z,13.80
2024-02-02T22:26:33.640Z,13.80
2024-02-02T22:29:02.543Z,14.50
2024-02-02T22:31:31.260Z,14.70
2024-02-02T22:33:59.404Z,14.80
2024-02-02T22:36:36.516Z,15.10
2024-02-02T22:39:05.330Z,15.40
2024-02-02T22:41:35.227Z,15.30
2024-02-02T22:44:04.101Z,15.20
2024-02-02T22:46:33.206Z,15.30
2024-02-02T22:49:02.509Z,14.90
2024-02-02T22:51:31.640Z,15.00
2024-02-02T22:54:01.540Z,14.70
2024-02-02T22:56:30.321Z,15.10
2024-02-02T22:58:58.777Z,15.10
2024-02-02T23:01:27.347Z,15.70
2024-02-02T23:03:56.011Z,15.70
2024-02-02T23:06:24.602Z,15.70
2024-02-02T23:08:53.058Z,16.10
2024-02-02T23:11:22.820Z,16.00
2024-02-02T23:13:51.333Z,16.00
2024-02-02T23:16:19.784Z,15.60
2024-02-02T23:18:48.690Z,16.00
2024-02-02T23:21:17.504Z,15.90
2024-02-02T23:23:48.075Z,15.50
2024-02-02T23:26:16.902Z,15.70
2024-02-02T23:28:47.022Z,15.80
2024-02-02T23:31:16.455Z,15.60
2024-02-02T23:33:45.321Z,15.70
2024-02-02T23:36:14.048Z,15.50
2024-02-02T23:38:44.614Z,15.00
2024-02-02T23:41:16.798Z,15.10
2024-02-02T23:43:47.218Z,15.00
2024-02-02T23:46:15.760Z,14.50
2024-02-02T23:48:46.363Z,14.80
2024-02-02T23:51:15.120Z,14.80
2024-02-02T23:53:43.449Z,14.60
2024-02-02T23:56:12.017Z,14.30
2024-02-02T23:58:40.638Z,14.30
